Time,TemperatureF,DewpointF,PressureIn,WindDirection,WindDirectionDegrees,WindSpeedMPH,WindSpeedGustMPH,Humidity,HourlyPrecipIn,Conditions,Clouds,dailyrainin,SolarRadiationWatts/m^2,SoftwareType,DateUTC
2013-02-21 10:20:00,31.4,14.9,30.14,North,11,9.0,10.0,50,0.00,,,0.00,563,Wunderground v.1.15,2013-02-21 15:20:00,
2013-02-21 10:50:00,31.9,14.9,30.14,NE,45,11.0,11.0,49,0.00,,,0.00,613,Wunderground v.1.15,2013-02-21 15:50:00,
2013-02-21 10:55:00,32.3,15.7,30.15,NNE,21,11.0,11.0,50,0.00,,,0.00,622,Wunderground v.1.15,2013-02-21 15:55:00,
2013-02-21 11:00:00,32.5,15.4,30.15,NE,51,11.0,11.0,49,0.00,,,0.00,626,Wunderground v.1.15,2013-02-21 16:00:00,
2013-02-21 11:10:00,32.9,15.3,30.15,NNE,14,11.0,11.0,48,0.00,,,0.00,638,Wunderground v.1.15,2013-02-21 16:10:00,
2013-02-21 11:20:00,32.7,15.6,30.15,NE,41,13.0,17.0,49,0.00,,,0.00,654,Wunderground v.1.15,2013-02-21 16:20:00,
2013-02-21 11:25:00,33.0,15.9,30.15,ENE,67,12.0,17.0,49,0.00,,,0.00,638,Wunderground v.1.15,2013-02-21 16:25:00,
2013-02-21 11:35:00,33.2,16.1,30.15,NE,54,12.0,12.0,49,0.00,,,0.00,650,Wunderground v.1.15,2013-02-21 16:35:00,
2013-02-21 11:45:00,33.8,16.2,30.13,ENE,76,9.0,13.0,48,0.00,,,0.00,670,Wunderground v.1.15,2013-02-21 16:45:00,
2013-02-21 11:55:00,34.5,16.8,30.13,NE,44,10.0,11.0,48,0.00,,,0.00,670,Wunderground v.1.15,2013-02-21 16:55:00,
2013-02-21 12:00:00,34.4,16.7,30.12,NNE,22,10.0,10.0,48,0.00,,,0.00,675,Wunderground v.1.15,2013-02-21 17:00:00,
2013-02-21 12:09:00,34.8,16.6,30.11,NE,40,10.0,12.0,47,0.00,,,0.00,680,Wunderground v.1.15,2013-02-21 17:09:00,
2013-02-21 12:15:00,34.7,16.5,30.11,ENE,61,10.0,12.0,47,0.00,,,0.00,679,Wunderground v.1.15,2013-02-21 17:15:00,
2013-02-21 12:25:00,34.3,16.1,30.11,ENE,69,12.0,17.0,47,0.00,,,0.00,680,Wunderground v.1.15,2013-02-21 17:25:00,
2013-02-21 12:35:00,35.0,16.8,30.11,NNE,22,11.0,11.0,47,0.00,,,0.00,677,Wunderground v.1.15,2013-02-21 17:35:00,
2013-02-21 12:45:00,35.2,17.0,30.11,NE,51,10.0,20.0,47,0.00,,,0.00,673,Wunderground v.1.15,2013-02-21 17:45:00,
2013-02-21 12:55:00,35.6,17.3,30.11,NE,46,11.0,11.0,47,0.00,,,0.00,666,Wunderground v.1.15,2013-02-21 17:55:00,
2013-02-21 13:00:00,35.6,16.8,30.11,ENE,63,11.0,15.0,46,0.00,,,0.00,661,Wunderground v.1.15,2013-02-21 18:00:00,
2013-02-21 13:09:00,36.2,17.9,30.11,NE,53,10.0,10.0,47,0.00,,,0.00,654,Wunderground v.1.15,2013-02-21 18:09:00,
2013-02-21 13:15:00,36.2,17.4,30.11,NE,41,11.0,11.0,46,0.00,,,0.00,649,Wunderground v.1.15,2013-02-21 18:15:00,
2013-02-21 13:25:00,35.8,17.0,30.11,NNE,26,12.0,17.0,46,0.00,,,0.00,643,Wunderground v.1.15,2013-02-21 18:25:00,
2013-02-21 13:35:00,35.7,17.4,30.11,ENE,60,13.0,13.0,47,0.00,,,0.00,626,Wunderground v.1.15,2013-02-21 18:35:00,
2013-02-21 13:45:00,36.3,17.5,30.10,North,9,10.0,11.0,46,0.00,,,0.00,619,Wunderground v.1.15,2013-02-21 18:45:00,
2013-02-21 13:50:00,36.5,18.2,30.10,NNE,22,12.0,12.0,47,0.00,,,0.00,608,Wunderground v.1.15,2013-02-21 18:50:00,
2013-02-21 14:00:00,36.4,18.1,30.09,NNE,17,10.0,12.0,47,0.00,,,0.00,589,Wunderground v.1.15,2013-02-21 19:00:00,
2013-02-21 14:09:00,36.4,18.1,30.09,NE,37,12.0,12.0,47,0.00,,,0.00,577,Wunderground v.1.15,2013-02-21 19:09:00,
2013-02-21 14:15:00,36.6,18.2,30.09,NNE,24,14.0,14.0,47,0.00,,,0.00,571,Wunderground v.1.15,2013-02-21 19:15:00,
2013-02-21 14:25:00,36.9,18.5,30.09,NE,37,12.0,13.0,47,0.00,,,0.00,545,Wunderground v.1.15,2013-02-21 19:25:00,
2013-02-21 14:30:00,37.3,18.9,30.09,NNE,17,12.0,12.0,47,0.00,,,0.00,541,Wunderground v.1.15,2013-02-21 19:30:00,
2013-02-21 14:39:00,37.5,18.6,30.09,ENE,66,12.0,12.0,46,0.00,,,0.00,519,Wunderground v.1.15,2013-02-21 19:39:00,
2013-02-21 14:45:00,37.2,18.3,30.09,NE,49,13.0,13.0,46,0.00,,,0.00,510,Wunderground v.1.15,2013-02-21 19:45:00,
2013-02-21 14:55:00,37.2,18.3,30.09,NNE,32,12.0,15.0,46,0.00,,,0.00,487,Wunderground v.1.15,2013-02-21 19:55:00,
2013-02-21 15:00:00,37.4,18.5,30.09,NNE,12,12.0,12.0,46,0.00,,,0.00,468,Wunderground v.1.15,2013-02-21 20:00:00,
2013-02-21 15:10:00,37.2,18.3,30.10,NNE,31,14.0,14.0,46,0.00,,,0.00,446,Wunderground v.1.15,2013-02-21 20:10:00,
2013-02-21 15:15:00,37.3,18.4,30.09,NE,54,14.0,14.0,46,0.00,,,0.00,434,Wunderground v.1.15,2013-02-21 20:15:00,
2013-02-21 15:25:00,37.2,18.3,30.11,North,355,14.0,18.0,46,0.00,,,0.00,406,Wunderground v.1.15,2013-02-21 20:25:00,
2013-02-21 15:35:00,37.7,18.8,30.11,ENE,69,11.0,13.0,46,0.00,,,0.00,380,Wunderground v.1.15,2013-02-21 20:35:00,
2013-02-21 15:45:00,37.5,18.6,30.11,NE,44,9.0,9.0,46,0.00,,,0.00,352,Wunderground v.1.15,2013-02-21 20:45:00,
2013-02-21 15:55:00,37.4,18.5,30.11,East,89,12.0,12.0,46,0.00,,,0.00,320,Wunderground v.1.15,2013-02-21 20:55:00,
2013-02-21 16:00:00,37.4,19.0,30.12,ENE,58,11.0,12.0,47,0.00,,,0.00,304,Wunderground v.1.15,2013-02-21 21:00:00,
2013-02-21 16:09:00,37.5,19.1,30.12,ENE,61,12.0,13.0,47,0.00,,,0.00,272,Wunderground v.1.15,2013-02-21 21:09:00,
2013-02-21 16:15:00,37.4,18.5,30.12,NE,42,13.0,14.0,46,0.00,,,0.00,251,Wunderground v.1.15,2013-02-21 21:15:00,
2013-02-21 16:25:00,37.4,19.0,30.12,NE,53,9.0,12.0,47,0.00,,,0.00,209,Wunderground v.1.15,2013-02-21 21:25:00,
2013-02-21 16:35:00,37.3,18.9,30.13,NE,49,11.0,16.0,47,0.00,,,0.00,163,Wunderground v.1.15,2013-02-21 21:35:00,
2013-02-21 16:45:00,37.2,18.8,30.14,East,92,9.0,10.0,47,0.00,,,0.00,130,Wunderground v.1.15,2013-02-21 21:45:00,
2013-02-21 16:55:00,37.1,18.7,30.13,NE,46,9.0,11.0,47,0.00,,,0.00,97,Wunderground v.1.15,2013-02-21 21:55:00,
2013-02-21 17:00:00,36.9,18.5,30.14,NE,46,11.0,11.0,47,0.00,,,0.00,81,Wunderground v.1.15,2013-02-21 22:00:00,
2013-02-21 17:10:00,36.8,18.9,30.14,ENE,67,10.0,12.0,48,0.00,,,0.00,51,Wunderground v.1.15,2013-02-21 22:10:00,
2013-02-21 17:20:00,36.4,19.0,30.14,NE,45,11.0,11.0,49,0.00,,,0.00,30,Wunderground v.1.15,2013-02-21 22:20:00,
2013-02-21 17:30:00,36.1,19.2,30.15,NNE,22,9.0,11.0,50,0.00,,,0.00,16,Wunderground v.1.15,2013-02-21 22:30:00,
2013-02-21 17:40:00,36.0,19.1,30.16,NE,44,10.0,10.0,50,0.00,,,0.00,7,Wunderground v.1.15,2013-02-21 22:40:00,
2013-02-21 17:50:00,35.8,19.0,30.17,NE,49,8.0,8.0,50,0.00,,,0.00,0,Wunderground v.1.15,2013-02-21 22:50:00,
2013-02-21 18:00:00,35.6,18.8,30.17,NE,40,7.0,10.0,50,0.00,,,0.00,0,Wunderground v.1.15,2013-02-21 23:00:00,
2013-02-21 18:10:00,35.4,19.0,30.18,NNE,16,6.0,6.0,51,0.00,,,0.00,0,Wunderground v.1.15,2013-02-21 23:10:00,
2013-02-21 18:20:00,35.2,19.3,30.20,NE,37,6.0,6.0,52,0.00,,,0.00,0,Wunderground v.1.15,2013-02-21 23:20:00,
2013-02-21 18:29:00,35.0,19.6,30.21,NE,38,6.0,6.0,53,0.00,,,0.00,0,Wunderground v.1.15,2013-02-21 23:29:00,
2013-02-21 18:35:00,35.0,19.6,30.21,NE,49,7.0,7.0,53,0.00,,,0.00,0,Wunderground v.1.15,2013-02-21 23:35:00,
2013-02-21 18:45:00,34.7,19.3,30.21,NE,53,6.0,12.0,53,0.00,,,0.00,0,Wunderground v.1.15,2013-02-21 23:45:00,
2013-02-21 18:54:00,34.6,19.2,30.22,NE,50,8.0,13.0,53,0.00,,,0.00,0,Wunderground v.1.15,2013-02-21 23:54:00,
2013-02-21 19:00:00,34.6,19.2,30.22,NE,37,7.0,8.0,53,0.00,,,0.00,0,Wunderground v.1.15,2013-02-22 00:00:00,
2013-02-21 19:10:00,34.5,19.1,30.23,ENE,58,8.0,8.0,53,0.00,,,0.00,0,Wunderground v.1.15,2013-02-22 00:10:00,
2013-02-21 19:15:00,34.4,19.0,30.23,NE,45,8.0,8.0,53,0.00,,,0.00,0,Wunderground v.1.15,2013-02-22 00:15:00,
2013-02-21 19:25:00,34.4,19.0,30.24,East,87,9.0,9.0,53,0.00,,,0.00,0,Wunderground v.1.15,2013-02-22 00:25:00,
2013-02-21 19:30:00,34.3,18.9,30.24,NE,55,8.0,8.0,53,0.00,,,0.00,0,Wunderground v.1.15,2013-02-22 00:30:00,
2013-02-21 19:39:00,34.2,19.3,30.24,NNE,30,8.0,8.0,54,0.00,,,0.00,0,Wunderground v.1.15,2013-02-22 00:39:00,
2013-02-21 19:45:00,34.2,19.3,30.25,NE,47,8.0,8.0,54,0.00,,,0.00,0,Wunderground v.1.15,2013-02-22 00:45:00,
2013-02-21 19:55:00,34.1,19.2,30.25,NE,37,7.0,7.0,54,0.00,,,0.00,0,Wunderground v.1.15,2013-02-22 00:55:00,
2013-02-21 20:00:00,34.0,19.5,30.25,NE,52,6.0,10.0,55,0.00,,,0.00,0,Wunderground v.1.15,2013-02-22 01:00:00,
2013-02-21 20:10:00,34.0,19.5,30.25,NE,55,8.0,8.0,55,0.00,,,0.00,0,Wunderground v.1.15,2013-02-22 01:10:00,
2013-02-21 20:20:00,34.0,19.5,30.25,NE,46,7.0,7.0,55,0.00,,,0.00,0,Wunderground v.1.15,2013-02-22 01:20:00,
2013-02-21 20:25:00,33.9,19.4,30.25,NE,50,7.0,7.0,55,0.00,,,0.00,0,Wunderground v.1.15,2013-02-22 01:25:00,
2013-02-21 20:35:00,33.9,19.4,30.26,NE,52,7.0,10.0,55,0.00,,,0.00,0,Wunderground v.1.15,2013-02-22 01:35:00,
2013-02-21 20:44:00,33.8,19.7,30.26,NE,36,7.0,14.0,56,0.00,,,0.00,0,Wunderground v.1.15,2013-02-22 01:44:00,
2013-02-21 20:50:00,33.7,19.7,30.26,NE,53,6.0,6.0,56,0.00,,,0.00,0,Wunderground v.1.15,2013-02-22 01:50:00,
2013-02-21 21:00:00,33.5,19.5,30.26,NE,44,6.0,9.0,56,0.00,,,0.00,0,Wunderground v.1.15,2013-02-22 02:00:00,
2013-02-21 21:10:00,33.3,19.7,30.26,NNE,32,7.0,7.0,57,0.00,,,0.00,0,Wunderground v.1.15,2013-02-22 02:10:00,
2013-02-21 21:15:00,33.1,19.9,30.27,NNE,25,7.0,8.0,58,0.00,,,0.00,0,Wunderground v.1.15,2013-02-22 02:15:00,
2013-02-21 21:25:00,32.8,19.6,30.26,NE,46,9.0,9.0,58,0.00,,,0.00,0,Wunderground v.1.15,2013-02-22 02:25:00,
2013-02-21 21:30:00,32.6,19.4,30.26,NNE,31,8.0,8.0,58,0.00,,,0.00,0,Wunderground v.1.15,2013-02-22 02:30:00,
2013-02-21 21:40:00,32.4,19.7,30.27,NNE,22,7.0,7.0,59,0.00,,,0.00,0,Wunderground v.1.15,2013-02-22 02:40:00,
2013-02-21 21:49:00,32.3,19.6,30.28,NNE,18,7.0,7.0,59,0.00,,,0.00,0,Wunderground v.1.15,2013-02-22 02:49:00,
2013-02-21 21:55:00,32.2,19.5,30.28,NNE,22,7.0,8.0,59,0.00,,,0.00,0,Wunderground v.1.15,2013-02-22 02:55:00,
2013-02-21 22:00:00,32.2,19.5,30.28,NNE,17,7.0,7.0,59,0.00,,,0.00,0,Wunderground v.1.15,2013-02-22 03:00:00,
2013-02-21 22:10:00,32.0,19.3,30.27,NE,41,5.0,5.0,59,0.00,,,0.00,0,Wunderground v.1.15,2013-02-22 03:10:00,
2013-02-21 22:20:00,32.1,19.4,30.27,NE,53,7.0,7.0,59,0.00,,,0.00,0,Wunderground v.1.15,2013-02-22 03:20:00,
2013-02-21 22:25:00,32.3,19.6,30.27,ENE,68,7.0,7.0,59,0.00,,,0.00,0,Wunderground v.1.15,2013-02-22 03:25:00,
2013-02-21 22:30:00,32.4,19.7,30.27,ENE,61,7.0,7.0,59,0.00,,,0.00,0,Wunderground v.1.15,2013-02-22 03:30:00,
2013-02-21 22:40:00,32.8,19.6,30.27,NNE,32,8.0,9.0,58,0.00,,,0.00,0,Wunderground v.1.15,2013-02-22 03:40:00,
2013-02-21 22:45:00,32.9,19.7,30.27,NE,37,8.0,9.0,58,0.00,,,0.00,0,Wunderground v.1.15,2013-02-22 03:45:00,
2013-02-21 22:55:00,32.9,20.1,30.28,ENE,63,7.0,9.0,59,0.00,,,0.00,0,Wunderground v.1.15,2013-02-22 03:55:00,
2013-02-21 23:00:00,32.9,20.5,30.28,ENE,71,6.0,6.0,60,0.00,,,0.00,0,Wunderground v.1.15,2013-02-22 04:00:00,
2013-02-21 23:05:00,32.9,20.9,30.28,East,80,6.0,6.0,61,0.00,,,0.00,0,Wunderground v.1.15,2013-02-22 04:05:00,
2013-02-21 23:15:00,33.0,21.8,30.28,East,80,5.0,6.0,63,0.00,,,0.00,0,Wunderground v.1.15,2013-02-22 04:15:00,
2013-02-21 23:25:00,33.2,22.7,30.29,ENE,76,6.0,8.0,65,0.00,,,0.00,0,Wunderground v.1.15,2013-02-22 04:25:00,
2013-02-21 23:35:00,33.7,22.4,30.29,East,86,7.0,7.0,63,0.00,,,0.00,0,Wunderground v.1.15,2013-02-22 04:35:00,
2013-02-21 23:45:00,33.9,23.0,30.29,ENE,78,7.0,8.0,64,0.00,,,0.00,0,Wunderground v.1.15,2013-02-22 04:45:00,
2013-02-21 23:55:00,33.9,23.4,30.30,East,99,7.0,8.0,65,0.00,,,0.00,0,Wunderground v.1.15,2013-02-22 04:55:00,